createdAt,value
2022-08-17T00:05:06.698Z,43.3
2022-08-17T00:10:48.949Z,43.3
2022-08-17T00:17:45.631Z,43.2
2022-08-17T00:24:56.485Z,43.2
2022-08-17T00:31:24.055Z,43.2
2022-08-17T00:38:02.565Z,43.1
2022-08-17T00:43:55.401Z,43.1
2022-08-17T00:49:51.799Z,43.1
2022-08-17T00:55:18.889Z,43.1
2022-08-17T01:01:24.203Z,43.1
2022-08-17T01:07:15.050Z,43.1
2022-08-17T01:13:19.940Z,43
2022-08-17T01:19:01.132Z,43
2022-08-17T01:24:45.316Z,43
2022-08-17T01:31:48.132Z,42.9
2022-08-17T01:37:39.516Z,42.9
2022-08-17T01:43:19.668Z,42.9
2022-08-17T01:49:10.114Z,42.9
2022-08-17T01:54:46.792Z,42.9
2022-08-17T02:00:27.127Z,42.8
2022-08-17T02:07:09.034Z,42.8
2022-08-17T02:14:19.915Z,42.8
2022-08-17T02:20:07.282Z,42.8
2022-08-17T02:26:43.281Z,42.7
2022-08-17T02:33:20.475Z,42.7
2022-08-17T02:39:13.463Z,42.7
2022-08-17T02:45:12.370Z,42.6
2022-08-17T02:51:02.527Z,42.6
2022-08-17T02:57:42.260Z,42.6
2022-08-17T03:03:28.512Z,42.6
2022-08-17T03:09:04.497Z,42.6
2022-08-17T03:14:30.970Z,42.5
2022-08-17T03:20:03.881Z,42.5
2022-08-17T03:26:33.543Z,42.5
2022-08-17T03:32:12.359Z,42.5
2022-08-17T03:38:00.145Z,42.4
2022-08-17T03:44:44.422Z,42.4
2022-08-17T03:50:43.571Z,42.4
2022-08-17T03:56:25.878Z,42.4
2022-08-17T04:02:17.962Z,42.4
2022-08-17T04:07:56.515Z,42.3
2022-08-17T04:13:42.002Z,42.3
2022-08-17T04:18:51.318Z,42.3
2022-08-17T04:24:46.077Z,42.3
2022-08-17T04:31:16.656Z,42.3
2022-08-17T04:37:39.740Z,42.3
2022-08-17T04:43:35.386Z,42.2
2022-08-17T04:49:42.594Z,42.2
2022-08-17T04:55:35.806Z,42.2
2022-08-17T05:01:25.343Z,42.1
2022-08-17T05:07:12.192Z,42.1
2022-08-17T05:13:01.861Z,42.1
2022-08-17T05:18:36.714Z,42.1
2022-08-17T05:24:55.763Z,42.1
2022-08-17T05:30:57.871Z,42.1
2022-08-17T05:37:17.013Z,42
2022-08-17T05:42:56.908Z,42
2022-08-17T05:49:12.626Z,41.9
2022-08-17T05:55:01.708Z,41.9
2022-08-17T06:01:14.966Z,41.9
2022-08-17T06:06:52.086Z,41.9
2022-08-17T06:12:48.493Z,41.9
2022-08-17T06:18:51.953Z,41.9
2022-08-17T06:24:21.882Z,41.9
2022-08-17T06:29:58.661Z,41.8
2022-08-17T06:36:09.690Z,41.8
2022-08-17T06:42:02.296Z,41.8
2022-08-17T06:49:07.820Z,41.8
2022-08-17T06:55:17.916Z,41.8
2022-08-17T07:01:52.455Z,41.7
2022-08-17T07:07:52.669Z,41.7
2022-08-17T07:13:35.467Z,41.7
2022-08-17T07:19:27.861Z,41.6
2022-08-17T07:25:53.975Z,41.6
2022-08-17T07:31:36.082Z,41.6
2022-08-17T07:37:19.851Z,41.6
2022-08-17T07:44:13.190Z,41.6
2022-08-17T07:49:54.190Z,41.6
2022-08-17T07:56:27.582Z,41.5
2022-08-17T08:02:16.259Z,41.5
2022-08-17T08:08:42.005Z,41.4
2022-08-17T08:14:36.665Z,41.4
2022-08-17T08:21:37.166Z,41.4
2022-08-17T08:27:02.580Z,41.4
2022-08-17T08:32:47.905Z,41.4
2022-08-17T08:40:11.145Z,41.6
2022-08-17T08:46:25.771Z,41.9
2022-08-17T08:53:43.144Z,42.2
2022-08-17T09:00:31.021Z,42.4
2022-08-17T09:07:54.794Z,42.8
2022-08-17T09:13:44.732Z,43.1
2022-08-17T09:20:49.575Z,43.3
2022-08-17T09:26:36.511Z,43.6
2022-08-17T09:32:22.304Z,43.9
2022-08-17T09:38:12.836Z,44.1
2022-08-17T09:44:01.566Z,44.4
2022-08-17T09:49:46.190Z,44.6
2022-08-17T09:56:34.140Z,44.9
2022-08-17T10:02:46.535Z,45.1
2022-08-17T10:08:38.180Z,45.4
2022-08-17T10:15:11.736Z,45.6
2022-08-17T10:20:49.800Z,45.9
2022-08-17T10:28:20.194Z,46.1
2022-08-17T10:34:29.724Z,46.4
2022-08-17T10:40:26.353Z,46.6
2022-08-17T10:47:20.041Z,46.8
2022-08-17T10:53:19.821Z,47.1
2022-08-17T10:58:59.844Z,47.4
2022-08-17T11:04:41.753Z,47.6
2022-08-17T11:10:19.690Z,47.8
2022-08-17T11:16:01.453Z,48
2022-08-17T11:21:40.689Z,48.3
2022-08-17T11:27:24.077Z,48.4
2022-08-17T11:33:23.768Z,48.7
2022-08-17T11:39:05.587Z,48.9
2022-08-17T11:44:18.415Z,48.9
2022-08-17T11:50:39.974Z,48.9
2022-08-17T11:57:13.392Z,49.1
2022-08-17T12:02:52.355Z,49.1
2022-08-17T12:08:30.334Z,49.3
2022-08-17T12:15:41.869Z,49.4
2022-08-17T12:21:45.986Z,49.4
2022-08-17T12:27:43.093Z,49.4
2022-08-17T12:34:00.806Z,49.4
2022-08-17T12:40:07.246Z,49.4
2022-08-17T12:45:56.099Z,49.5
2022-08-17T12:52:07.904Z,49.6
2022-08-17T12:57:53.634Z,49.7
2022-08-17T13:03:52.205Z,49.8
2022-08-17T13:09:36.153Z,49.8
2022-08-17T13:15:23.337Z,49.9
2022-08-17T13:21:03.212Z,49.9
2022-08-17T13:26:51.264Z,50
2022-08-17T13:32:46.077Z,49.9
2022-08-17T13:39:12.684Z,49.9
2022-08-17T13:45:31.065Z,49.9
2022-08-17T13:51:28.014Z,49.9
2022-08-17T13:57:44.566Z,49.9
2022-08-17T14:03:51.666Z,49.9
2022-08-17T14:10:09.123Z,49.9
2022-08-17T14:16:12.279Z,49.9
2022-08-17T14:22:19.469Z,49.8
2022-08-17T14:28:25.283Z,49.8
2022-08-17T14:34:28.662Z,49.8
2022-08-17T14:40:11.785Z,49.8
2022-08-17T14:46:04.997Z,49.7
2022-08-17T14:51:50.306Z,49.7
2022-08-17T14:58:12.802Z,49.7
2022-08-17T15:03:37.391Z,49.6
2022-08-17T15:09:22.345Z,49.6
2022-08-17T15:15:14.961Z,49.6
2022-08-17T15:21:20.486Z,49.6
2022-08-17T15:26:59.714Z,49.6
2022-08-17T15:32:55.408Z,49.5
2022-08-17T15:38:44.455Z,49.5
2022-08-17T15:44:34.826Z,49.4
2022-08-17T15:50:16.643Z,49.4
2022-08-17T15:56:01.202Z,49.4
2022-08-17T16:04:46.801Z,49.4
2022-08-17T16:10:36.136Z,49.4
2022-08-17T16:16:31.265Z,49.3
2022-08-17T16:22:33.902Z,49.3
2022-08-17T16:28:52.549Z,49.3
2022-08-17T16:35:07.018Z,49.3
2022-08-17T16:40:53.408Z,49.2
2022-08-17T16:46:30.909Z,49.2
2022-08-17T16:52:49.562Z,49.2
2022-08-17T16:58:39.207Z,49.1
2022-08-17T17:05:08.145Z,49.1
2022-08-17T17:10:41.699Z,49.1
2022-08-17T17:17:01.354Z,49.1
2022-08-17T17:22:50.099Z,49
2022-08-17T17:28:30.272Z,49
2022-08-17T17:34:22.051Z,49
2022-08-17T17:40:00.603Z,48.9
2022-08-17T17:46:44.451Z,48.9
2022-08-17T17:53:15.023Z,48.9
2022-08-17T17:59:35.016Z,48.9
2022-08-17T18:05:26.492Z,48.8
2022-08-17T18:11:41.265Z,48.8
2022-08-17T18:17:27.949Z,48.8
2022-08-17T18:23:29.301Z,48.8
2022-08-17T18:29:12.836Z,48.7
2022-08-17T18:35:05.016Z,48.7
2022-08-17T18:40:54.257Z,48.6
2022-08-17T18:47:01.105Z,48.6
2022-08-17T18:53:07.190Z,48.6
2022-08-17T18:58:33.023Z,48.6
2022-08-17T19:04:49.261Z,48.6
2022-08-17T19:10:10.657Z,48.5
2022-08-17T19:15:22.018Z,48.5
2022-08-17T19:21:21.931Z,48.4
2022-08-17T19:28:21.997Z,48.4
2022-08-17T19:33:51.688Z,48.4
2022-08-17T19:39:21.542Z,48.4
2022-08-17T19:45:24.240Z,48.3
2022-08-17T19:51:45.631Z,48.3
2022-08-17T19:57:51.609Z,48.3
2022-08-17T20:03:39.088Z,48.3
2022-08-17T20:09:50.076Z,48.3
2022-08-17T20:15:43.421Z,48.2
2022-08-17T20:21:37.019Z,48.2
2022-08-17T20:27:15.628Z,48.2
2022-08-17T20:32:53.918Z,48.1
2022-08-17T20:38:34.781Z,48.1
2022-08-17T20:43:44.937Z,48.1
2022-08-17T20:50:04.185Z,48.1
2022-08-17T20:55:24.571Z,48
2022-08-17T21:01:13.480Z,48
2022-08-17T21:06:51.429Z,47.9
2022-08-17T21:13:09.003Z,47.9
2022-08-17T21:18:49.973Z,47.9
2022-08-17T21:24:49.971Z,47.9
2022-08-17T21:31:17.563Z,47.9
2022-08-17T21:37:04.914Z,47.8
2022-08-17T21:42:31.458Z,47.8
2022-08-17T21:48:11.357Z,47.8
2022-08-17T21:53:37.513Z,47.8
2022-08-17T21:59:38.126Z,47.8
2022-08-17T22:05:01.103Z,47.7
2022-08-17T22:10:22.487Z,47.7
2022-08-17T22:16:45.721Z,47.6
2022-08-17T22:22:22.565Z,47.6
2022-08-17T22:28:09.351Z,47.6
2022-08-17T22:33:51.297Z,47.6
2022-08-17T22:39:40.730Z,47.6
2022-08-17T22:45:23.620Z,47.5
2022-08-17T22:51:15.700Z,47.5
2022-08-17T22:56:37.143Z,47.4
2022-08-17T23:02:23.394Z,47.4
2022-08-17T23:08:16.158Z,47.4
2022-08-17T23:14:10.592Z,47.4
2022-08-17T23:19:44.370Z,47.3
2022-08-17T23:25:29.468Z,47.3
2022-08-17T23:30:21.341Z,47.3
2022-08-17T23:36:13.704Z,47.3
2022-08-17T23:42:02.206Z,47.3
2022-08-17T23:47:38.116Z,47.3
2022-08-17T23:53:25.393Z,47.2
2022-08-17T23:59:29.736Z,47.2
